Time;durP1;ratioP1;P1;durP2;ratioP2;P2;SDS_P1;SDS_P2;PMS_P1;PMS_P2;Temp;Humidity;BMP_temperature;BMP_pressure;BME280_temperature;BME280_humidity;BME280_pressure;Samples;Min_cycle;Max_cycle;Signal;HPM_P1;HPM_P2
2021/07/17 00:00:56;;;;;;;18.52;7.85;;;;;;;;;;4970482;28;20437;-71
2021/07/17 00:03:21;;;;;;;17.13;7.43;;;;;;;;;;4969099;28;20184;-71
2021/07/17 00:05:47;;;;;;;19.55;7.57;;;;;;;;;;4972432;28;20176;-72
2021/07/17 00:08:12;;;;;;;16.83;7.45;;;;;;;;;;4969891;28;20208;-71
2021/07/17 00:10:43;;;;;;;19.58;7.10;;;;;;;;;;4951888;28;20657;-71
2021/07/17 00:13:09;;;;;;;16.95;6.40;;;;;;;;;;4969882;28;20173;-72
2021/07/17 00:15:34;;;;;;;19.10;6.97;;;;;;;;;;4958951;28;20169;-72
2021/07/17 00:18:00;;;;;;;20.83;7.85;;;;;;;;;;4964788;28;20180;-72
2021/07/17 00:20:25;;;;;;;27.20;9.80;;;;;;;;;;4967332;28;24032;-72
2021/07/17 00:22:50;;;;;;;18.92;6.40;;;;;;;;;;4969168;28;20187;-72
2021/07/17 00:25:17;;;;;;;22.83;7.47;;;;;;;;;;4966936;28;20282;-72
2021/07/17 00:27:43;;;;;;;14.18;6.65;;;;;;;;;;4967984;28;20469;-73
2021/07/17 00:30:08;;;;;;;16.58;7.30;;;;;;;;;;4968696;28;20294;-72
2021/07/17 00:32:34;;;;;;;21.63;8.35;;;;;;;;;;4963734;28;20238;-73
2021/07/17 00:34:59;;;;;;;17.10;7.10;;;;;;;;;;4967515;28;20180;-73
2021/07/17 00:37:24;;;;;;;23.20;7.47;;;;;;;;;;4963603;28;20272;-73
2021/07/17 00:39:49;;;;;;;17.23;7.10;;;;;;;;;;4955894;28;20743;-72
2021/07/17 00:42:14;;;;;;;23.90;8.05;;;;;;;;;;4956743;28;20191;-72
2021/07/17 00:44:39;;;;;;;18.25;7.75;;;;;;;;;;4972619;28;20258;-72
2021/07/17 00:47:06;;;;;;;18.90;7.90;;;;;;;;;;4956611;28;20203;-72
2021/07/17 00:49:31;;;;;;;19.77;7.15;;;;;;;;;;4956554;28;20236;-71
2021/07/17 00:51:56;;;;;;;16.67;7.07;;;;;;;;;;4955214;28;20220;-71
2021/07/17 00:54:25;;;;;;;18.25;8.18;;;;;;;;;;4955038;28;20554;-71
2021/07/17 00:56:51;;;;;;;19.35;7.47;;;;;;;;;;4962087;28;20184;-70
2021/07/17 00:59:17;;;;;;;22.63;7.65;;;;;;;;;;4959071;28;20204;-71
2021/07/17 01:01:43;;;;;;;20.50;7.68;;;;;;;;;;4964129;28;20192;-71
2021/07/17 01:04:08;;;;;;;17.85;6.53;;;;;;;;;;4959619;28;20250;-71
2021/07/17 01:06:33;;;;;;;17.08;6.35;;;;;;;;;;4961092;28;20269;-71
2021/07/17 01:08:58;;;;;;;13.90;6.97;;;;;;;;;;4956697;28;20204;-71
2021/07/17 01:11:24;;;;;;;17.48;7.20;;;;;;;;;;4961623;28;20461;-71
2021/07/17 01:13:49;;;;;;;29.67;9.27;;;;;;;;;;4958588;28;20183;-71
2021/07/17 01:16:14;;;;;;;20.63;7.40;;;;;;;;;;4960845;28;20937;-72
2021/07/17 01:18:40;;;;;;;16.75;6.75;;;;;;;;;;4978370;23;20623;-76
2021/07/17 01:21:05;;;;;;;16.48;7.00;;;;;;;;;;5000046;28;20202;-77
2021/07/17 01:23:31;;;;;;;20.60;7.95;;;;;;;;;;4995916;28;20290;-76
2021/07/17 01:25:56;;;;;;;24.30;7.10;;;;;;;;;;4990941;28;20266;-76
2021/07/17 01:28:21;;;;;;;25.58;9.30;;;;;;;;;;4989282;28;21018;-77
2021/07/17 01:30:47;;;;;;;22.13;7.45;;;;;;;;;;4990763;28;20326;-76
2021/07/17 01:33:12;;;;;;;18.98;7.35;;;;;;;;;;4995302;28;20179;-76
2021/07/17 01:35:37;;;;;;;15.70;6.95;;;;;;;;;;4990279;28;20203;-76
2021/07/17 01:38:03;;;;;;;23.45;7.75;;;;;;;;;;5014238;28;20640;-77
2021/07/17 01:40:28;;;;;;;14.57;7.43;;;;;;;;;;4992854;28;20264;-77
2021/07/17 01:42:54;;;;;;;15.63;7.30;;;;;;;;;;4995239;28;20659;-77
2021/07/17 01:45:40;;;;;;;19.17;7.05;;;;;;;;;;4992783;28;20186;-77
2021/07/17 01:48:06;;;;;;;20.15;8.52;;;;;;;;;;4993291;28;20194;-77
2021/07/17 01:50:32;;;;;;;18.42;7.00;;;;;;;;;;4996765;28;20207;-77
2021/07/17 01:52:58;;;;;;;22.00;8.55;;;;;;;;;;4991813;28;20184;-76
2021/07/17 01:55:23;;;;;;;23.30;9.07;;;;;;;;;;4993364;28;20783;-76
2021/07/17 01:57:49;;;;;;;24.60;9.13;;;;;;;;;;4989290;28;20190;-77
2021/07/17 02:00:14;;;;;;;15.57;7.32;;;;;;;;;;4988379;28;20203;-76
2021/07/17 02:02:40;;;;;;;17.98;7.95;;;;;;;;;;4992128;28;20249;-77
2021/07/17 02:05:05;;;;;;;21.50;7.93;;;;;;;;;;4992764;28;20186;-77
2021/07/17 02:07:31;;;;;;;19.02;7.55;;;;;;;;;;4992127;28;20176;-76
2021/07/17 02:09:56;;;;;;;16.33;7.47;;;;;;;;;;5012435;28;20691;-76
2021/07/17 02:12:21;;;;;;;23.13;8.48;;;;;;;;;;4993674;28;20219;-75
2021/07/17 02:14:49;;;;;;;17.83;7.67;;;;;;;;;;4993006;28;20179;-75
2021/07/17 02:17:14;;;;;;;20.38;7.72;;;;;;;;;;4993644;28;20492;-76
2021/07/17 02:19:40;;;;;;;25.85;9.93;;;;;;;;;;5003143;28;20223;-76
2021/07/17 02:22:05;;;;;;;22.05;8.85;;;;;;;;;;4997788;28;20206;-76
2021/07/17 02:24:30;;;;;;;20.08;7.63;;;;;;;;;;4995309;28;20179;-76
2021/07/17 02:26:55;;;;;;;22.90;8.38;;;;;;;;;;5016434;28;20274;-76
2021/07/17 02:29:20;;;;;;;20.77;9.30;;;;;;;;;;5009333;28;20290;-76
2021/07/17 02:31:46;;;;;;;18.63;6.97;;;;;;;;;;5009181;28;20207;-76
2021/07/17 02:34:14;;;;;;;21.50;7.75;;;;;;;;;;5010176;28;20206;-76
2021/07/17 02:36:39;;;;;;;15.20;6.82;;;;;;;;;;5016331;28;20238;-76
2021/07/17 02:39:05;;;;;;;20.63;7.93;;;;;;;;;;5014368;28;20218;-76
2021/07/17 02:41:30;;;;;;;25.00;8.73;;;;;;;;;;5017207;28;20515;-77
2021/07/17 02:43:56;;;;;;;19.80;8.07;;;;;;;;;;5017056;28;20178;-76
2021/07/17 02:46:21;;;;;;;18.58;8.38;;;;;;;;;;5008000;28;20190;-75
2021/07/17 02:48:46;;;;;;;18.35;7.20;;;;;;;;;;5009390;28;20213;-75
2021/07/17 02:51:12;;;;;;;25.30;9.52;;;;;;;;;;4992958;28;20207;-75
2021/07/17 02:53:37;;;;;;;20.13;9.52;;;;;;;;;;4992385;28;20599;-76
2021/07/17 02:56:02;;;;;;;20.85;9.45;;;;;;;;;;4991434;28;20176;-76
2021/07/17 02:58:27;;;;;;;25.38;9.95;;;;;;;;;;4994709;28;20179;-75
2021/07/17 03:00:56;;;;;;;21.55;9.75;;;;;;;;;;5006701;28;20188;-76
2021/07/17 03:03:21;;;;;;;16.98;8.35;;;;;;;;;;5013375;28;20197;-76
2021/07/17 03:05:47;;;;;;;20.80;7.93;;;;;;;;;;4993009;28;20199;-76
2021/07/17 03:08:15;;;;;;;18.88;8.05;;;;;;;;;;4998719;28;20225;-76
2021/07/17 03:10:41;;;;;;;15.88;8.50;;;;;;;;;;4997629;28;20472;-76
2021/07/17 03:13:06;;;;;;;20.52;8.02;;;;;;;;;;4993534;28;20183;-76
2021/07/17 03:15:31;;;;;;;26.35;10.73;;;;;;;;;;4997687;28;20605;-79
2021/07/17 03:17:56;;;;;;;24.20;10.60;;;;;;;;;;4996272;28;20211;-76
2021/07/17 03:20:21;;;;;;;19.42;8.85;;;;;;;;;;4994137;28;20230;-75
2021/07/17 03:22:47;;;;;;;18.33;8.70;;;;;;;;;;4993223;28;20199;-76
2021/07/17 03:25:12;;;;;;;22.73;10.30;;;;;;;;;;4993994;28;20183;-75
2021/07/17 03:27:37;;;;;;;19.15;8.65;;;;;;;;;;5004228;28;20190;-76
2021/07/17 03:30:06;;;;;;;26.77;10.93;;;;;;;;;;5007056;28;20294;-76
2021/07/17 03:32:32;;;;;;;23.52;10.90;;;;;;;;;;4997177;28;20233;-76
2021/07/17 03:34:57;;;;;;;25.27;10.63;;;;;;;;;;4991120;28;20601;-76
2021/07/17 03:37:22;;;;;;;27.73;10.55;;;;;;;;;;4997646;28;20183;-75
2021/07/17 03:39:47;;;;;;;18.40;9.60;;;;;;;;;;4995133;28;20743;-76
2021/07/17 03:42:12;;;;;;;24.73;9.98;;;;;;;;;;4991901;28;20180;-76
2021/07/17 03:44:38;;;;;;;24.55;11.25;;;;;;;;;;4990711;28;20190;-75
2021/07/17 03:47:03;;;;;;;26.52;10.73;;;;;;;;;;4994948;28;20191;-76
2021/07/17 03:49:28;;;;;;;23.80;11.20;;;;;;;;;;5004935;28;20214;-76
2021/07/17 03:51:53;;;;;;;21.95;10.98;;;;;;;;;;4990464;28;20213;-76
2021/07/17 03:54:18;;;;;;;23.10;11.75;;;;;;;;;;4990125;28;20187;-76
2021/07/17 03:56:44;;;;;;;24.15;9.98;;;;;;;;;;5004463;28;20552;-76
2021/07/17 03:59:09;;;;;;;23.38;10.30;;;;;;;;;;4986869;28;20447;-76
2021/07/17 04:01:34;;;;;;;19.33;9.55;;;;;;;;;;4992125;28;20653;-76
2021/07/17 04:03:59;;;;;;;24.15;10.05;;;;;;;;;;4988559;28;20214;-76
2021/07/17 04:06:24;;;;;;;21.42;10.30;;;;;;;;;;4992503;28;20187;-76
2021/07/17 04:08:50;;;;;;;22.13;10.85;;;;;;;;;;4988060;28;20680;-76
2021/07/17 04:11:15;;;;;;;24.60;11.50;;;;;;;;;;4987976;28;20218;-77
2021/07/17 04:13:40;;;;;;;23.30;9.30;;;;;;;;;;5002134;28;20222;-76
2021/07/17 04:16:05;;;;;;;26.17;9.85;;;;;;;;;;4988929;28;20265;-75
2021/07/17 04:18:30;;;;;;;23.60;11.45;;;;;;;;;;4988323;28;20203;-75
2021/07/17 04:20:56;;;;;;;23.52;11.13;;;;;;;;;;5004927;28;20843;-76
2021/07/17 04:23:21;;;;;;;24.93;9.93;;;;;;;;;;4989578;28;20669;-76
2021/07/17 04:25:46;;;;;;;28.15;11.82;;;;;;;;;;4988284;28;20479;-76
2021/07/17 04:28:11;;;;;;;24.42;9.68;;;;;;;;;;4993444;28;20191;-75
2021/07/17 04:30:36;;;;;;;22.60;9.30;;;;;;;;;;4989093;28;20210;-77
2021/07/17 04:33:01;;;;;;;23.38;9.32;;;;;;;;;;4998030;28;20183;-77
2021/07/17 04:35:27;;;;;;;22.27;9.23;;;;;;;;;;4992987;28;20249;-76
2021/07/17 04:37:52;;;;;;;23.92;9.55;;;;;;;;;;4993054;28;20561;-77
2021/07/17 04:40:17;;;;;;;21.80;9.25;;;;;;;;;;4993682;28;20213;-76
2021/07/17 04:42:42;;;;;;;18.08;8.05;;;;;;;;;;5012563;28;20183;-76
2021/07/17 04:45:08;;;;;;;20.58;9.40;;;;;;;;;;4992518;28;20183;-76
2021/07/17 04:47:34;;;;;;;19.70;9.25;;;;;;;;;;4999274;28;20180;-76
2021/07/17 04:50:02;;;;;;;22.63;8.38;;;;;;;;;;4993134;28;20213;-77
2021/07/17 04:52:27;;;;;;;28.13;10.00;;;;;;;;;;4995095;28;20218;-77
2021/07/17 04:54:53;;;;;;;16.02;7.68;;;;;;;;;;4992794;28;20183;-76
2021/07/17 04:57:18;;;;;;;21.52;8.35;;;;;;;;;;4993765;28;20185;-76
2021/07/17 04:59:43;;;;;;;19.00;7.65;;;;;;;;;;4994008;28;20676;-76
2021/07/17 05:02:08;;;;;;;15.63;7.05;;;;;;;;;;4994933;28;20203;-77
2021/07/17 05:04:33;;;;;;;20.07;8.20;;;;;;;;;;5007841;28;20622;-76
2021/07/17 05:06:59;;;;;;;24.27;9.55;;;;;;;;;;5012796;28;20432;-76
2021/07/17 05:09:24;;;;;;;19.48;8.25;;;;;;;;;;4992354;28;20207;-76
2021/07/17 05:11:49;;;;;;;21.38;7.32;;;;;;;;;;5009265;28;20740;-75
2021/07/17 05:14:15;;;;;;;22.55;8.35;;;;;;;;;;4994646;28;20720;-77
2021/07/17 05:16:40;;;;;;;16.02;7.57;;;;;;;;;;4992137;28;20241;-75
2021/07/17 05:19:06;;;;;;;16.65;7.40;;;;;;;;;;5009261;28;20215;-76
2021/07/17 05:21:31;;;;;;;18.63;7.28;;;;;;;;;;4991221;28;21968;-76
2021/07/17 05:23:56;;;;;;;19.25;8.23;;;;;;;;;;4991422;28;20567;-75
2021/07/17 05:26:21;;;;;;;20.13;6.93;;;;;;;;;;4997784;28;20219;-76
2021/07/17 05:28:46;;;;;;;16.73;7.72;;;;;;;;;;4994014;28;20230;-75
2021/07/17 05:31:12;;;;;;;12.48;6.68;;;;;;;;;;4996681;28;20305;-74
2021/07/17 05:33:37;;;;;;;22.13;7.80;;;;;;;;;;4989684;28;20210;-76
2021/07/17 05:36:02;;;;;;;22.45;7.63;;;;;;;;;;4994460;28;20226;-75
2021/07/17 05:38:27;;;;;;;17.85;7.05;;;;;;;;;;4991976;28;20180;-75
2021/07/17 05:40:52;;;;;;;17.63;7.87;;;;;;;;;;4997350;28;20386;-75
2021/07/17 05:43:17;;;;;;;23.52;7.68;;;;;;;;;;4990034;28;20994;-76
2021/07/17 05:45:43;;;;;;;21.60;8.43;;;;;;;;;;4994520;28;20193;-77
2021/07/17 05:48:08;;;;;;;21.67;8.45;;;;;;;;;;4996814;28;20435;-76
2021/07/17 05:50:33;;;;;;;23.63;8.10;;;;;;;;;;4988821;28;20270;-75
2021/07/17 05:53:04;;;;;;;20.92;7.00;;;;;;;;;;4991580;28;20944;-75
2021/07/17 05:55:29;;;;;;;15.90;6.75;;;;;;;;;;4990747;28;20189;-77
2021/07/17 05:57:55;;;;;;;13.73;6.07;;;;;;;;;;4995447;28;20195;-75
2021/07/17 06:00:20;;;;;;;17.92;6.35;;;;;;;;;;4994402;28;20819;-76
2021/07/17 06:02:46;;;;;;;16.65;6.45;;;;;;;;;;4995771;28;20228;-76
2021/07/17 06:05:11;;;;;;;18.45;6.53;;;;;;;;;;4995856;28;20175;-76
2021/07/17 06:07:37;;;;;;;18.33;7.80;;;;;;;;;;4997991;28;20183;-76
2021/07/17 06:10:02;;;;;;;14.32;6.55;;;;;;;;;;4988937;28;20260;-76
2021/07/17 06:12:27;;;;;;;16.98;6.53;;;;;;;;;;4997576;28;20207;-75
2021/07/17 06:14:53;;;;;;;19.27;6.93;;;;;;;;;;4989329;28;20194;-75
2021/07/17 06:17:18;;;;;;;16.77;6.83;;;;;;;;;;4995131;28;20179;-76
2021/07/17 06:19:43;;;;;;;16.27;5.93;;;;;;;;;;4989286;28;20610;-76
2021/07/17 06:22:09;;;;;;;17.40;6.18;;;;;;;;;;5006096;28;20447;-75
2021/07/17 06:24:34;;;;;;;18.30;5.95;;;;;;;;;;4988780;28;20244;-75
2021/07/17 06:26:59;;;;;;;9.20;4.72;;;;;;;;;;4997447;28;20191;-74
2021/07/17 06:29:25;;;;;;;14.15;5.50;;;;;;;;;;4992850;28;20206;-75
2021/07/17 06:31:50;;;;;;;13.15;4.72;;;;;;;;;;4992957;28;20207;-75
2021/07/17 06:34:15;;;;;;;17.53;5.43;;;;;;;;;;4988750;28;20684;-75
2021/07/17 06:36:41;;;;;;;16.60;5.47;;;;;;;;;;4994348;28;20424;-76
2021/07/17 06:39:06;;;;;;;14.05;4.75;;;;;;;;;;4992156;28;20238;-76
2021/07/17 06:41:31;;;;;;;18.48;4.88;;;;;;;;;;4996325;28;20648;-75
2021/07/17 06:43:57;;;;;;;12.48;4.25;;;;;;;;;;4996765;28;20191;-77
2021/07/17 06:46:22;;;;;;;14.52;4.97;;;;;;;;;;4993728;28;20209;-77
2021/07/17 06:48:48;;;;;;;11.25;3.85;;;;;;;;;;5021595;28;20222;-74
2021/07/17 06:51:13;;;;;;;13.55;4.38;;;;;;;;;;5013547;28;20242;-75
2021/07/17 06:53:39;;;;;;;10.38;3.92;;;;;;;;;;5007680;28;20196;-75
2021/07/17 06:56:04;;;;;;;14.07;3.92;;;;;;;;;;5010357;28;20182;-75
2021/07/17 06:58:29;;;;;;;9.00;3.63;;;;;;;;;;5012403;28;20208;-75
2021/07/17 07:00:54;;;;;;;11.38;3.67;;;;;;;;;;5012254;28;20195;-75
2021/07/17 07:03:20;;;;;;;9.23;3.47;;;;;;;;;;5026752;28;20217;-74
2021/07/17 07:05:45;;;;;;;7.85;3.30;;;;;;;;;;5013379;28;20191;-75
2021/07/17 07:08:10;;;;;;;7.85;3.13;;;;;;;;;;5011595;28;20274;-76
2021/07/17 07:10:36;;;;;;;10.02;3.50;;;;;;;;;;5005132;28;20191;-75
2021/07/17 07:13:08;;;;;;;8.13;2.92;;;;;;;;;;4992640;28;20191;-76
2021/07/17 07:15:33;;;;;;;10.38;3.30;;;;;;;;;;4988729;28;20191;-76
2021/07/17 07:17:58;;;;;;;12.43;4.07;;;;;;;;;;4995185;28;20183;-75
2021/07/17 07:20:23;;;;;;;7.10;3.40;;;;;;;;;;4987726;23;22887;-70
2021/07/17 07:22:48;;;;;;;10.40;3.40;;;;;;;;;;4948518;28;20434;-70
2021/07/17 07:25:14;;;;;;;8.30;3.30;;;;;;;;;;4948683;28;20485;-70
2021/07/17 07:27:39;;;;;;;10.68;3.10;;;;;;;;;;4951836;28;20422;-69
2021/07/17 07:30:05;;;;;;;9.25;2.95;;;;;;;;;;4950877;28;20681;-70
2021/07/17 07:32:30;;;;;;;9.98;2.58;;;;;;;;;;4952483;28;20212;-69
2021/07/17 07:34:55;;;;;;;8.17;3.53;;;;;;;;;;4950993;28;20185;-69
2021/07/17 07:37:21;;;;;;;8.40;3.00;;;;;;;;;;4958860;28;20915;-70
2021/07/17 07:39:46;;;;;;;9.57;3.70;;;;;;;;;;4949819;28;20452;-71
2021/07/17 07:42:11;;;;;;;7.43;2.70;;;;;;;;;;4952742;28;20473;-69
2021/07/17 07:44:37;;;;;;;7.53;2.70;;;;;;;;;;4951457;28;21302;-69
2021/07/17 07:47:03;;;;;;;9.95;2.72;;;;;;;;;;4952345;28;20248;-70
2021/07/17 07:49:28;;;;;;;8.18;2.45;;;;;;;;;;4950941;28;20426;-70
2021/07/17 07:51:53;;;;;;;7.23;2.70;;;;;;;;;;4954775;28;20304;-69
2021/07/17 07:54:18;;;;;;;4.70;1.95;;;;;;;;;;4953579;28;20521;-70
2021/07/17 07:56:43;;;;;;;4.87;2.43;;;;;;;;;;4953755;28;20185;-72
2021/07/17 07:59:08;;;;;;;8.70;2.67;;;;;;;;;;4965073;28;20575;-69
2021/07/17 08:01:34;;;;;;;4.97;2.03;;;;;;;;;;4965626;28;20188;-69
2021/07/17 08:03:59;;;;;;;5.07;1.93;;;;;;;;;;4951480;28;20740;-69
2021/07/17 08:06:24;;;;;;;3.83;1.97;;;;;;;;;;4970704;28;21001;-70
2021/07/17 08:08:49;;;;;;;7.83;2.37;;;;;;;;;;4951719;28;20440;-70
2021/07/17 08:11:14;;;;;;;5.20;2.10;;;;;;;;;;4952354;28;20549;-70
2021/07/17 08:13:40;;;;;;;6.40;2.17;;;;;;;;;;4952877;28;20181;-70
2021/07/17 08:16:05;;;;;;;4.85;2.08;;;;;;;;;;4953412;28;20261;-70
2021/07/17 08:18:30;;;;;;;6.28;2.25;;;;;;;;;;4954479;28;20247;-70
2021/07/17 08:20:56;;;;;;;5.25;1.85;;;;;;;;;;4953240;28;20282;-70
2021/07/17 08:23:21;;;;;;;4.32;1.70;;;;;;;;;;4957064;28;20667;-70
2021/07/17 08:25:46;;;;;;;4.57;1.92;;;;;;;;;;4952485;28;20184;-71
2021/07/17 08:28:11;;;;;;;6.30;2.10;;;;;;;;;;4950572;28;20192;-70
2021/07/17 08:30:38;;;;;;;7.43;1.40;;;;;;;;;;4951526;28;20552;-71
2021/07/17 08:33:03;;;;;;;4.30;1.67;;;;;;;;;;4952976;28;20859;-70
2021/07/17 08:35:29;;;;;;;6.50;1.95;;;;;;;;;;4951473;28;20194;-70
2021/07/17 08:37:54;;;;;;;5.28;1.70;;;;;;;;;;4954678;28;20214;-72
2021/07/17 08:40:19;;;;;;;4.68;1.80;;;;;;;;;;4955320;28;20200;-71
2021/07/17 08:42:46;;;;;;;5.22;1.55;;;;;;;;;;4952669;28;20199;-71
2021/07/17 08:45:11;;;;;;;8.23;1.70;;;;;;;;;;4953625;28;20235;-72
2021/07/17 08:47:39;;;;;;;4.75;1.77;;;;;;;;;;4953045;28;20176;-71
2021/07/17 08:50:06;;;;;;;5.72;1.70;;;;;;;;;;4951293;28;20201;-70
2021/07/17 08:52:31;;;;;;;3.80;1.67;;;;;;;;;;4952717;28;20224;-71
2021/07/17 08:55:02;;;;;;;6.68;1.95;;;;;;;;;;4951594;28;20196;-72
2021/07/17 08:57:27;;;;;;;5.38;1.98;;;;;;;;;;4949828;28;20176;-72
2021/07/17 08:59:53;;;;;;;4.32;1.38;;;;;;;;;;4953927;28;20848;-71
2021/07/17 09:02:19;;;;;;;3.03;1.55;;;;;;;;;;4954228;28;20189;-72
2021/07/17 09:04:44;;;;;;;4.95;1.50;;;;;;;;;;4950479;28;20239;-71
2021/07/17 09:07:09;;;;;;;2.90;1.30;;;;;;;;;;4954586;28;20196;-72
2021/07/17 09:09:36;;;;;;;5.93;1.60;;;;;;;;;;4952045;28;20203;-71
2021/07/17 09:12:02;;;;;;;4.60;1.63;;;;;;;;;;4956852;28;20355;-71
2021/07/17 09:14:37;;;;;;;6.40;1.83;;;;;;;;;;4952100;28;20261;-71
2021/07/17 09:17:03;;;;;;;6.32;1.88;;;;;;;;;;4951442;28;20185;-70
2021/07/17 09:19:28;;;;;;;4.85;1.92;;;;;;;;;;4954515;28;20223;-71
2021/07/17 09:21:55;;;;;;;4.53;2.00;;;;;;;;;;4959520;28;20216;-71
2021/07/17 09:24:20;;;;;;;4.70;1.77;;;;;;;;;;4955362;28;20287;-71
2021/07/17 09:26:54;;;;;;;4.53;1.20;;;;;;;;;;4956409;28;20191;-70
2021/07/17 09:29:19;;;;;;;4.47;1.38;;;;;;;;;;4955379;28;20918;-72
2021/07/17 09:31:52;;;;;;;5.78;1.50;;;;;;;;;;4956564;28;20356;-70
2021/07/17 09:34:18;;;;;;;2.97;1.50;;;;;;;;;;4953245;28;20181;-71
2021/07/17 09:36:55;;;;;;;4.93;1.58;;;;;;;;;;4953780;28;20193;-71
2021/07/17 09:39:22;;;;;;;4.13;1.30;;;;;;;;;;4953854;28;20270;-70
2021/07/17 09:41:56;;;;;;;2.72;1.25;;;;;;;;;;4959274;28;21658;-71
2021/07/17 09:44:22;;;;;;;2.97;1.33;;;;;;;;;;4955245;28;20180;-70
2021/07/17 09:46:47;;;;;;;3.78;1.10;;;;;;;;;;4957455;28;20198;-70
2021/07/17 09:49:16;;;;;;;2.13;1.25;;;;;;;;;;4954021;28;20290;-70
2021/07/17 09:51:41;;;;;;;2.30;1.05;;;;;;;;;;4963824;28;20239;-70
2021/07/17 09:54:06;;;;;;;5.30;1.37;;;;;;;;;;4955065;28;20800;-70
2021/07/17 09:56:34;;;;;;;3.08;1.25;;;;;;;;;;4954438;28;20260;-71
2021/07/17 09:59:00;;;;;;;4.28;1.42;;;;;;;;;;4953337;28;20709;-69
2021/07/17 10:01:29;;;;;;;2.00;1.38;;;;;;;;;;4954595;28;20193;-70
2021/07/17 10:04:00;;;;;;;2.30;0.80;;;;;;;;;;4967797;28;20562;-70
2021/07/17 10:06:27;;;;;;;3.05;1.20;;;;;;;;;;4949091;28;20176;-70
2021/07/17 10:08:52;;;;;;;5.05;1.10;;;;;;;;;;4955155;28;20549;-70
2021/07/17 10:11:23;;;;;;;2.33;1.00;;;;;;;;;;4955613;28;20208;-71
2021/07/17 10:13:49;;;;;;;3.10;1.17;;;;;;;;;;4954496;28;20505;-71
2021/07/17 10:16:15;;;;;;;3.85;0.98;;;;;;;;;;4955758;28;20199;-70
2021/07/17 10:18:41;;;;;;;5.22;1.10;;;;;;;;;;4957434;28;20189;-70
2021/07/17 10:21:06;;;;;;;1.83;0.77;;;;;;;;;;4954905;28;20222;-70
2021/07/17 10:23:31;;;;;;;2.17;1.00;;;;;;;;;;4955147;28;20189;-69
2021/07/17 10:25:56;;;;;;;4.63;1.20;;;;;;;;;;4953572;28;20697;-70
2021/07/17 10:28:23;;;;;;;1.70;0.70;;;;;;;;;;4954657;28;20432;-70
2021/07/17 10:30:48;;;;;;;2.53;1.10;;;;;;;;;;4954551;28;20212;-70
2021/07/17 10:33:14;;;;;;;3.63;1.23;;;;;;;;;;4953346;28;20296;-69
2021/07/17 10:35:39;;;;;;;3.33;1.33;;;;;;;;;;4954418;28;20188;-71
2021/07/17 10:38:06;;;;;;;1.75;0.90;;;;;;;;;;4952207;28;20239;-70
2021/07/17 10:40:32;;;;;;;2.47;0.82;;;;;;;;;;4957435;28;20263;-70
2021/07/17 10:42:58;;;;;;;2.25;1.00;;;;;;;;;;4954770;28;20266;-70
2021/07/17 10:45:36;;;;;;;2.25;0.90;;;;;;;;;;4954512;28;20571;-70
2021/07/17 10:48:02;;;;;;;2.47;0.80;;;;;;;;;;4953456;28;20180;-70
2021/07/17 10:50:35;;;;;;;5.22;1.77;;;;;;;;;;4952961;28;20212;-71
2021/07/17 10:53:00;;;;;;;2.28;0.90;;;;;;;;;;4954777;28;20271;-70
2021/07/17 10:55:30;;;;;;;4.13;1.20;;;;;;;;;;4954184;28;20268;-69
2021/07/17 10:57:59;;;;;;;2.90;0.90;;;;;;;;;;4953678;28;20258;-70
2021/07/17 11:00:43;;;;;;;1.05;0.50;;;;;;;;;;4952542;28;20769;-70
2021/07/17 11:03:14;;;;;;;4.70;1.13;;;;;;;;;;4955663;28;20198;-71
2021/07/17 11:05:40;;;;;;;2.75;1.10;;;;;;;;;;4953527;28;20270;-71
2021/07/17 11:08:05;;;;;;;1.13;0.87;;;;;;;;;;4962464;28;20260;-71
2021/07/17 11:10:41;;;;;;;3.08;0.73;;;;;;;;;;4956196;28;20532;-72
2021/07/17 11:13:07;;;;;;;1.98;0.90;;;;;;;;;;4953350;28;20191;-71
2021/07/17 11:15:32;;;;;;;2.55;0.90;;;;;;;;;;4954091;28;20203;-72
2021/07/17 11:17:58;;;;;;;3.53;0.98;;;;;;;;;;4950030;28;20503;-72
2021/07/17 11:20:31;;;;;;;2.37;0.90;;;;;;;;;;4951597;28;20216;-71
2021/07/17 11:22:59;;;;;;;1.13;0.52;;;;;;;;;;4954046;28;20435;-71
2021/07/17 11:25:24;;;;;;;1.48;0.57;;;;;;;;;;4951766;28;20183;-72
2021/07/17 11:27:49;;;;;;;3.00;0.68;;;;;;;;;;4953798;28;20195;-71
2021/07/17 11:30:16;;;;;;;4.40;0.97;;;;;;;;;;4951258;28;21566;-72
2021/07/17 11:32:59;;;;;;;3.40;0.90;;;;;;;;;;4953915;28;20204;-71
2021/07/17 11:35:24;;;;;;;3.80;0.93;;;;;;;;;;4954161;28;20183;-71
2021/07/17 11:37:51;;;;;;;2.00;0.63;;;;;;;;;;4950451;28;20181;-71
2021/07/17 11:40:17;;;;;;;1.80;0.60;;;;;;;;;;4953816;28;20227;-72
2021/07/17 11:42:42;;;;;;;2.67;0.73;;;;;;;;;;4964219;28;20827;-71
2021/07/17 11:45:08;;;;;;;3.28;1.10;;;;;;;;;;4952971;28;20191;-71
2021/07/17 11:47:33;;;;;;;0.93;0.50;;;;;;;;;;4955734;28;20183;-71
2021/07/17 11:49:59;;;;;;;1.83;0.70;;;;;;;;;;4952107;28;20705;-71
2021/07/17 11:52:26;;;;;;;3.35;0.80;;;;;;;;;;4954804;28;20208;-71
2021/07/17 11:55:01;;;;;;;3.15;1.20;;;;;;;;;;4951553;28;20184;-71
2021/07/17 11:57:28;;;;;;;6.63;1.10;;;;;;;;;;4953633;28;20545;-72
2021/07/17 11:59:53;;;;;;;3.22;0.80;;;;;;;;;;4946587;28;20266;-72
2021/07/17 12:02:19;;;;;;;5.20;1.23;;;;;;;;;;4959770;28;20621;-72
2021/07/17 12:04:44;;;;;;;2.92;1.30;;;;;;;;;;4955859;28;20185;-71
2021/07/17 12:07:11;;;;;;;2.50;1.05;;;;;;;;;;4953546;28;20180;-71
2021/07/17 12:09:37;;;;;;;1.42;0.80;;;;;;;;;;4950899;28;20749;-71
2021/07/17 12:12:11;;;;;;;4.05;1.05;;;;;;;;;;4957912;28;20712;-72
2021/07/17 12:14:37;;;;;;;2.40;0.88;;;;;;;;;;4951080;28;20673;-71
2021/07/17 12:17:02;;;;;;;2.80;1.30;;;;;;;;;;4953839;28;20211;-71
2021/07/17 12:19:27;;;;;;;1.60;0.95;;;;;;;;;;4953190;28;21542;-71
2021/07/17 12:21:56;;;;;;;3.57;1.57;;;;;;;;;;4950459;28;20704;-72
2021/07/17 12:24:21;;;;;;;2.60;0.93;;;;;;;;;;4950395;28;20204;-71
2021/07/17 12:26:46;;;;;;;4.00;1.00;;;;;;;;;;4952636;28;20908;-71
2021/07/17 12:29:12;;;;;;;2.80;0.97;;;;;;;;;;4953044;28;20462;-71
2021/07/17 12:31:38;;;;;;;2.50;1.30;;;;;;;;;;4951990;28;20217;-70
2021/07/17 12:34:08;;;;;;;2.27;1.00;;;;;;;;;;4951796;28;20189;-70
2021/07/17 12:36:40;;;;;;;3.85;1.05;;;;;;;;;;4952109;28;20184;-71
2021/07/17 12:39:05;;;;;;;3.67;0.90;;;;;;;;;;4950876;28;20207;-71
2021/07/17 12:41:31;;;;;;;3.53;1.10;;;;;;;;;;4956465;28;20195;-72
2021/07/17 12:43:56;;;;;;;3.53;1.00;;;;;;;;;;4953930;28;20198;-72
2021/07/17 12:46:22;;;;;;;2.97;1.10;;;;;;;;;;4953082;28;20180;-71
2021/07/17 12:48:55;;;;;;;4.22;1.08;;;;;;;;;;4951406;28;20184;-71
2021/07/17 12:51:29;;;;;;;3.00;1.08;;;;;;;;;;4946706;28;20556;-71
2021/07/17 12:53:56;;;;;;;4.65;1.40;;;;;;;;;;4956541;28;20190;-71
2021/07/17 12:56:28;;;;;;;4.80;1.10;;;;;;;;;;4957654;28;20216;-71
2021/07/17 12:58:53;;;;;;;1.80;0.95;;;;;;;;;;4956140;28;20709;-72
2021/07/17 13:01:19;;;;;;;2.00;1.10;;;;;;;;;;4949059;28;20291;-71
2021/07/17 13:03:44;;;;;;;4.05;1.10;;;;;;;;;;4954146;28;20673;-71
2021/07/17 13:06:14;;;;;;;3.58;1.20;;;;;;;;;;4957277;28;20192;-71
2021/07/17 13:08:39;;;;;;;2.60;1.10;;;;;;;;;;4957967;28;20180;-71
2021/07/17 13:11:05;;;;;;;3.47;1.13;;;;;;;;;;4955092;28;20584;-71
2021/07/17 13:13:34;;;;;;;6.18;1.42;;;;;;;;;;4958949;28;20203;-71
2021/07/17 13:16:02;;;;;;;2.75;1.00;;;;;;;;;;4955458;28;20629;-73
2021/07/17 13:18:30;;;;;;;2.80;1.20;;;;;;;;;;4959542;28;20179;-71
2021/07/17 13:20:57;;;;;;;7.03;2.38;;;;;;;;;;4997605;23;20242;-72
2021/07/17 13:23:22;;;;;;;4.63;1.52;;;;;;;;;;4991078;28;20179;-73
2021/07/17 13:25:47;;;;;;;1.70;1.17;;;;;;;;;;4993183;28;20640;-72
2021/07/17 13:28:12;;;;;;;4.23;1.10;;;;;;;;;;4993201;28;20815;-73
2021/07/17 13:30:38;;;;;;;7.15;1.27;;;;;;;;;;4979493;28;20218;-72
2021/07/17 13:33:05;;;;;;;2.70;1.00;;;;;;;;;;4977392;28;20858;-72
2021/07/17 13:35:31;;;;;;;6.35;1.52;;;;;;;;;;4969931;28;20710;-74
2021/07/17 13:38:00;;;;;;;2.78;1.00;;;;;;;;;;4976649;28;20320;-73
2021/07/17 13:40:26;;;;;;;2.30;0.82;;;;;;;;;;4985683;28;20211;-73
2021/07/17 13:42:51;;;;;;;3.75;1.30;;;;;;;;;;4971903;28;20264;-72
2021/07/17 13:45:17;;;;;;;4.20;1.13;;;;;;;;;;4974496;28;20184;-74
2021/07/17 13:47:45;;;;;;;3.07;1.20;;;;;;;;;;4976678;28;20701;-73
2021/07/17 13:50:20;;;;;;;4.97;0.95;;;;;;;;;;4970676;28;20785;-73
2021/07/17 13:52:59;;;;;;;2.75;1.15;;;;;;;;;;4974613;28;20203;-73
2021/07/17 13:55:26;;;;;;;2.10;0.93;;;;;;;;;;4971546;28;20293;-73
2021/07/17 13:58:00;;;;;;;2.45;1.15;;;;;;;;;;4972645;28;20575;-72
2021/07/17 14:00:25;;;;;;;3.45;1.10;;;;;;;;;;4975972;28;20205;-72
2021/07/17 14:02:52;;;;;;;2.10;0.90;;;;;;;;;;4975311;28;20192;-74
2021/07/17 14:05:17;;;;;;;4.55;1.27;;;;;;;;;;4984277;28;20188;-73
2021/07/17 14:07:42;;;;;;;2.20;1.10;;;;;;;;;;4977219;28;20183;-73
2021/07/17 14:10:09;;;;;;;5.75;1.45;;;;;;;;;;4972968;28;20448;-72
2021/07/17 14:12:35;;;;;;;3.22;1.17;;;;;;;;;;4975048;28;20203;-73
2021/07/17 14:15:00;;;;;;;6.65;1.50;;;;;;;;;;4976681;28;20241;-73
2021/07/17 14:17:25;;;;;;;3.30;1.33;;;;;;;;;;4974375;28;20198;-72
2021/07/17 14:19:53;;;;;;;4.20;1.20;;;;;;;;;;4969421;28;20294;-72
2021/07/17 14:22:19;;;;;;;4.18;1.17;;;;;;;;;;4969517;28;20601;-73
2021/07/17 14:24:45;;;;;;;5.55;1.73;;;;;;;;;;4984768;28;20259;-72
2021/07/17 14:27:11;;;;;;;5.72;1.35;;;;;;;;;;4988474;28;20181;-72
2021/07/17 14:29:36;;;;;;;4.03;1.20;;;;;;;;;;4972436;28;20204;-73